RYR59DR EGSS-EPSC
Flight info
| Callsign | RYR59DR |
|---|---|
| Flight time | 1h 33m |
| Altitude | 37000 |
| Route | CLN P44 RATLO M197 REDFA L620 TACHA DCT OSNAD DCT VIBIS L619 PODUS/N0413F310 L619 TABOK L733 BODLA |
| Aircraft | B738/M-SDE3FGIJ1LRWY/SB1 |
Departure
| Time | 2026-04-21 13:38 |
|---|---|
| Airport | London Stansted Airport (EGSS) |
Arrival
| Time | 2026-04-21 15:12 |
|---|---|
| Airport | Solidarity Szczecin–Goleniów Airport (EPSC) |
| Time | Latitude | Longitude | Altitude | Speed | Heading |
|---|---|---|---|---|---|
| 2026-04-21 13:03 | 51.89291 | 0.25873 | 351 ft | 0 kts | 43° |
| 2026-04-21 13:28 | 51.89285 | 0.25864 | 351 ft | 3 kts | 43° |
| 2026-04-21 13:28 | 51.89272 | 0.25844 | 351 ft | 3 kts | 42° |
| 2026-04-21 13:28 | 51.89256 | 0.25826 | 351 ft | 3 kts | 360° |
| 2026-04-21 13:28 | 51.89240 | 0.25836 | 351 ft | 3 kts | 313° |
| 2026-04-21 13:29 | 51.89228 | 0.25858 | 351 ft | 0 kts | 313° |
| 2026-04-21 13:30 | 51.89229 | 0.25856 | 351 ft | 1 kts | 313° |
| 2026-04-21 13:30 | 51.89237 | 0.25842 | 358 ft | 4 kts | 313° |
| 2026-04-21 13:31 | 51.89274 | 0.25779 | 353 ft | 11 kts | 313° |
| 2026-04-21 13:31 | 51.89329 | 0.25681 | 355 ft | 12 kts | 312° |
| 2026-04-21 13:31 | 51.89362 | 0.25575 | 355 ft | 11 kts | 253° |
| 2026-04-21 13:31 | 51.89313 | 0.25483 | 354 ft | 12 kts | 221° |
| 2026-04-21 13:32 | 51.89241 | 0.25375 | 355 ft | 18 kts | 223° |
| 2026-04-21 13:32 | 51.89133 | 0.25215 | 351 ft | 23 kts | 224° |
| 2026-04-21 13:32 | 51.89018 | 0.25041 | 358 ft | 22 kts | 223° |
| 2026-04-21 13:32 | 51.88906 | 0.24873 | 355 ft | 22 kts | 223° |
| 2026-04-21 13:33 | 51.88797 | 0.24708 | 354 ft | 21 kts | 223° |
| 2026-04-21 13:33 | 51.88681 | 0.24535 | 351 ft | 25 kts | 223° |
| 2026-04-21 13:33 | 51.88549 | 0.24336 | 344 ft | 27 kts | 223° |
| 2026-04-21 13:33 | 51.88413 | 0.24132 | 349 ft | 26 kts | 223° |
| 2026-04-21 13:34 | 51.88285 | 0.23939 | 348 ft | 26 kts | 223° |
| 2026-04-21 13:34 | 51.88136 | 0.23716 | 337 ft | 32 kts | 223° |
| 2026-04-21 13:34 | 51.87980 | 0.23483 | 336 ft | 29 kts | 223° |
| 2026-04-21 13:34 | 51.87836 | 0.23267 | 339 ft | 27 kts | 223° |
| 2026-04-21 13:35 | 51.87736 | 0.23115 | 339 ft | 10 kts | 234° |
| 2026-04-21 13:35 | 51.87747 | 0.23009 | 338 ft | 10 kts | 307° |
| 2026-04-21 13:35 | 51.87784 | 0.22917 | 337 ft | 10 kts | 270° |
| 2026-04-21 13:35 | 51.87732 | 0.22814 | 336 ft | 15 kts | 222° |
| 2026-04-21 13:36 | 51.87641 | 0.22677 | 335 ft | 22 kts | 223° |
| 2026-04-21 13:36 | 51.87527 | 0.22507 | 329 ft | 18 kts | 222° |
| 2026-04-21 13:36 | 51.87435 | 0.22367 | 328 ft | 18 kts | 223° |
| 2026-04-21 13:36 | 51.87402 | 0.22245 | 325 ft | 11 kts | 273° |
| 2026-04-21 13:37 | 51.87442 | 0.22134 | 322 ft | 12 kts | 313° |
| 2026-04-21 13:37 | 51.87497 | 0.22039 | 321 ft | 5 kts | 314° |
| 2026-04-21 13:37 | 51.87522 | 0.22018 | 322 ft | 3 kts | 21° |
| 2026-04-21 13:37 | 51.87532 | 0.22032 | 322 ft | 3 kts | 40° |
| 2026-04-21 13:38 | 51.87696 | 0.22275 | 325 ft | 65 kts | 42° |
| 2026-04-21 13:38 | 51.88184 | 0.23005 | 329 ft | 124 kts | 42° |
| 2026-04-21 13:38 | 51.88904 | 0.24084 | 547 ft | 151 kts | 45° |
| 2026-04-21 13:38 | 51.89679 | 0.25260 | 1257 ft | 153 kts | 46° |
| 2026-04-21 13:39 | 51.90487 | 0.26509 | 1848 ft | 172 kts | 47° |
| 2026-04-21 13:39 | 51.91309 | 0.28134 | 2068 ft | 200 kts | 64° |
| 2026-04-21 13:39 | 51.91691 | 0.30373 | 2465 ft | 220 kts | 87° |
| 2026-04-21 13:39 | 51.91357 | 0.32857 | 3087 ft | 236 kts | 111° |
| 2026-04-21 13:40 | 51.90625 | 0.35265 | 3738 ft | 237 kts | 113° |
| 2026-04-21 13:40 | 51.89894 | 0.37675 | 4533 ft | 239 kts | 112° |
| 2026-04-21 13:40 | 51.89169 | 0.40110 | 5299 ft | 246 kts | 113° |
| 2026-04-21 13:40 | 51.88408 | 0.42663 | 6161 ft | 249 kts | 113° |
| 2026-04-21 13:41 | 51.87656 | 0.45208 | 6962 ft | 254 kts | 113° |
| 2026-04-21 13:41 | 51.86896 | 0.47793 | 7802 ft | 255 kts | 113° |
| 2026-04-21 13:41 | 51.86124 | 0.50421 | 8469 ft | 262 kts | 113° |
| 2026-04-21 13:41 | 51.85344 | 0.53076 | 9358 ft | 261 kts | 112° |
| 2026-04-21 13:42 | 51.84555 | 0.55759 | 10079 ft | 267 kts | 113° |
| 2026-04-21 13:42 | 51.83753 | 0.58492 | 10731 ft | 274 kts | 112° |
| 2026-04-21 13:42 | 51.83141 | 0.61523 | 10891 ft | 296 kts | 99° |
| 2026-04-21 13:42 | 51.82944 | 0.64929 | 11196 ft | 312 kts | 88° |
| 2026-04-21 13:43 | 51.83071 | 0.68453 | 11864 ft | 315 kts | 85° |
| 2026-04-21 13:43 | 51.83233 | 0.71994 | 12652 ft | 317 kts | 85° |
| 2026-04-21 13:43 | 51.83392 | 0.75586 | 13334 ft | 323 kts | 86° |
| 2026-04-21 13:43 | 51.83539 | 0.79237 | 14100 ft | 327 kts | 86° |
| 2026-04-21 13:44 | 51.83681 | 0.82911 | 14851 ft | 329 kts | 86° |
| 2026-04-21 13:44 | 51.83822 | 0.86648 | 15461 ft | 336 kts | 86° |
| 2026-04-21 13:44 | 51.83964 | 0.90445 | 16213 ft | 338 kts | 86° |
| 2026-04-21 13:44 | 51.84103 | 0.94190 | 16935 ft | 342 kts | 86° |
| 2026-04-21 13:45 | 51.84244 | 0.98012 | 17516 ft | 350 kts | 86° |
| 2026-04-21 13:45 | 51.84388 | 1.01949 | 18290 ft | 351 kts | 86° |
| 2026-04-21 13:45 | 51.84532 | 1.05891 | 19022 ft | 352 kts | 86° |
| 2026-04-21 13:45 | 51.84626 | 1.08525 | 19371 ft | 356 kts | 86° |
| 2026-04-21 13:46 | 51.84772 | 1.12560 | 19873 ft | 362 kts | 85° |
| 2026-04-21 13:46 | 51.85238 | 1.16566 | 20459 ft | 364 kts | 68° |
| 2026-04-21 13:46 | 51.86245 | 1.20355 | 20948 ft | 371 kts | 65° |
| 2026-04-21 13:46 | 51.87315 | 1.24191 | 21517 ft | 374 kts | 65° |
| 2026-04-21 13:47 | 51.88390 | 1.28050 | 22134 ft | 378 kts | 65° |
| 2026-04-21 13:47 | 51.89468 | 1.31969 | 22551 ft | 385 kts | 65° |
| 2026-04-21 13:47 | 51.90547 | 1.35938 | 23208 ft | 386 kts | 65° |
| 2026-04-21 13:47 | 51.91630 | 1.39955 | 23682 ft | 392 kts | 65° |
| 2026-04-21 13:48 | 51.92710 | 1.43987 | 24157 ft | 395 kts | 65° |
| 2026-04-21 13:48 | 51.93809 | 1.48102 | 24576 ft | 400 kts | 64° |
| 2026-04-21 13:48 | 51.94907 | 1.52227 | 25114 ft | 399 kts | 63° |
| 2026-04-21 13:48 | 51.96015 | 1.56391 | 25482 ft | 405 kts | 64° |
| 2026-04-21 13:49 | 51.97139 | 1.60622 | 25776 ft | 412 kts | 63° |
| 2026-04-21 13:49 | 51.98276 | 1.64908 | 26222 ft | 414 kts | 64° |
| 2026-04-21 13:49 | 51.99375 | 1.69303 | 26636 ft | 419 kts | 68° |
| 2026-04-21 13:49 | 52.00180 | 1.73839 | 27003 ft | 425 kts | 72° |
| 2026-04-21 13:50 | 52.00892 | 1.78520 | 27377 ft | 429 kts | 73° |
| 2026-04-21 13:50 | 52.01592 | 1.83321 | 27742 ft | 433 kts | 73° |
| 2026-04-21 13:50 | 52.02290 | 1.88102 | 28112 ft | 437 kts | 73° |
| 2026-04-21 13:50 | 52.03006 | 1.92915 | 28459 ft | 440 kts | 72° |
| 2026-04-21 13:51 | 52.03738 | 1.97755 | 28967 ft | 439 kts | 73° |
| 2026-04-21 13:51 | 52.04458 | 2.02490 | 29560 ft | 437 kts | 73° |
| 2026-04-21 13:51 | 52.05198 | 2.07322 | 29769 ft | 444 kts | 73° |
| 2026-04-21 13:51 | 52.05947 | 2.12216 | 30035 ft | 448 kts | 73° |
| 2026-04-21 13:52 | 52.06709 | 2.17203 | 30371 ft | 451 kts | 73° |
| 2026-04-21 13:52 | 52.07462 | 2.22164 | 30692 ft | 452 kts | 73° |
| 2026-04-21 13:52 | 52.08215 | 2.27137 | 30947 ft | 455 kts | 73° |
| 2026-04-21 13:52 | 52.08971 | 2.32148 | 31222 ft | 457 kts | 73° |
| 2026-04-21 13:53 | 52.09727 | 2.37176 | 31540 ft | 458 kts | 73° |
| 2026-04-21 13:53 | 52.10472 | 2.42138 | 31926 ft | 457 kts | 73° |
| 2026-04-21 13:53 | 52.11231 | 2.47216 | 32338 ft | 455 kts | 73° |
| 2026-04-21 13:53 | 52.12031 | 2.52155 | 32949 ft | 448 kts | 71° |
| 2026-04-21 13:54 | 52.12929 | 2.57002 | 33287 ft | 448 kts | 69° |
| 2026-04-21 13:54 | 52.13878 | 2.61858 | 33459 ft | 452 kts | 69° |
| 2026-04-21 13:54 | 52.14842 | 2.66745 | 33696 ft | 454 kts | 69° |
| 2026-04-21 13:54 | 52.15797 | 2.71640 | 34071 ft | 453 kts | 69° |
| 2026-04-21 13:55 | 52.16736 | 2.76529 | 34431 ft | 452 kts | 69° |
| 2026-04-21 13:55 | 52.17664 | 2.81416 | 34680 ft | 452 kts | 70° |
| 2026-04-21 13:55 | 52.18588 | 2.86321 | 34919 ft | 453 kts | 70° |
| 2026-04-21 13:55 | 52.19508 | 2.91230 | 35188 ft | 453 kts | 70° |
| 2026-04-21 13:56 | 52.20423 | 2.96126 | 35491 ft | 452 kts | 70° |
| 2026-04-21 13:56 | 52.21336 | 3.01025 | 35806 ft | 450 kts | 70° |
| 2026-04-21 13:56 | 52.22240 | 3.05891 | 36138 ft | 448 kts | 70° |
| 2026-04-21 13:56 | 52.23145 | 3.10758 | 36351 ft | 449 kts | 70° |
| 2026-04-21 13:57 | 52.24047 | 3.15625 | 36548 ft | 450 kts | 70° |
| 2026-04-21 13:57 | 52.24950 | 3.20519 | 36803 ft | 449 kts | 71° |
| 2026-04-21 13:57 | 52.25624 | 3.25476 | 37120 ft | 449 kts | 80° |
| 2026-04-21 13:57 | 52.25819 | 3.30586 | 37330 ft | 453 kts | 86° |
| 2026-04-21 13:58 | 52.25870 | 3.40940 | 37330 ft | 458 kts | 87° |
| 2026-04-21 13:58 | 52.25884 | 3.51261 | 37327 ft | 449 kts | 87° |
| 2026-04-21 13:59 | 52.25929 | 3.61409 | 37333 ft | 446 kts | 87° |
| 2026-04-21 13:59 | 52.25991 | 3.71552 | 37331 ft | 444 kts | 87° |
| 2026-04-21 14:00 | 52.26051 | 3.81598 | 37333 ft | 444 kts | 87° |
| 2026-04-21 14:00 | 52.26103 | 3.91663 | 37339 ft | 444 kts | 87° |
| 2026-04-21 14:01 | 52.26146 | 4.01757 | 37343 ft | 446 kts | 87° |
| 2026-04-21 14:01 | 52.26179 | 4.11899 | 37335 ft | 448 kts | 88° |
| 2026-04-21 14:02 | 52.26203 | 4.22085 | 37327 ft | 449 kts | 88° |
| 2026-04-21 14:03 | 52.26223 | 4.37395 | 37331 ft | 451 kts | 88° |
| 2026-04-21 14:03 | 52.26225 | 4.47600 | 37330 ft | 451 kts | 88° |
| 2026-04-21 14:04 | 52.26219 | 4.57848 | 37316 ft | 452 kts | 88° |
| 2026-04-21 14:04 | 52.26203 | 4.68173 | 37319 ft | 451 kts | 88° |
| 2026-04-21 14:05 | 52.26178 | 4.78344 | 37323 ft | 451 kts | 88° |
| 2026-04-21 14:05 | 52.26145 | 4.88634 | 37317 ft | 450 kts | 88° |
| 2026-04-21 14:06 | 52.26103 | 4.98807 | 37324 ft | 450 kts | 88° |
| 2026-04-21 14:06 | 52.26053 | 5.09008 | 37314 ft | 449 kts | 88° |
| 2026-04-21 14:07 | 52.25994 | 5.19122 | 37314 ft | 447 kts | 88° |
| 2026-04-21 14:07 | 52.25926 | 5.29260 | 37315 ft | 446 kts | 88° |
| 2026-04-21 14:08 | 52.25850 | 5.39355 | 37318 ft | 445 kts | 88° |
| 2026-04-21 14:08 | 52.25766 | 5.49434 | 37328 ft | 444 kts | 89° |
| 2026-04-21 14:09 | 52.25673 | 5.59475 | 37318 ft | 444 kts | 89° |
| 2026-04-21 14:09 | 52.25572 | 5.69534 | 37306 ft | 443 kts | 88° |
| 2026-04-21 14:10 | 52.25462 | 5.79593 | 37303 ft | 443 kts | 89° |
| 2026-04-21 14:10 | 52.25344 | 5.89601 | 37306 ft | 442 kts | 89° |
| 2026-04-21 14:11 | 52.25217 | 5.99637 | 37311 ft | 443 kts | 89° |
| 2026-04-21 14:11 | 52.25082 | 6.09688 | 37306 ft | 443 kts | 89° |
| 2026-04-21 14:12 | 52.24938 | 6.19726 | 37310 ft | 443 kts | 89° |
| 2026-04-21 14:12 | 52.24785 | 6.29791 | 37314 ft | 443 kts | 89° |
| 2026-04-21 14:13 | 52.24624 | 6.39851 | 37316 ft | 444 kts | 89° |
| 2026-04-21 14:13 | 52.24454 | 6.49921 | 37323 ft | 444 kts | 89° |
| 2026-04-21 14:14 | 52.24279 | 6.60004 | 37314 ft | 445 kts | 89° |
| 2026-04-21 14:14 | 52.24099 | 6.70092 | 37315 ft | 445 kts | 89° |
| 2026-04-21 14:15 | 52.23904 | 6.80182 | 37313 ft | 445 kts | 89° |
| 2026-04-21 14:15 | 52.23702 | 6.90263 | 37318 ft | 445 kts | 89° |
| 2026-04-21 14:16 | 52.23486 | 7.00421 | 37316 ft | 445 kts | 90° |
| 2026-04-21 14:16 | 52.23275 | 7.10438 | 37303 ft | 444 kts | 90° |
| 2026-04-21 14:17 | 52.23031 | 7.20563 | 37309 ft | 443 kts | 90° |
| 2026-04-21 14:17 | 52.22782 | 7.30604 | 37309 ft | 443 kts | 90° |
| 2026-04-21 14:18 | 52.22534 | 7.40633 | 37312 ft | 442 kts | 90° |
| 2026-04-21 14:18 | 52.22281 | 7.50648 | 37323 ft | 441 kts | 90° |
| 2026-04-21 14:19 | 52.22020 | 7.60633 | 37316 ft | 440 kts | 90° |
| 2026-04-21 14:19 | 52.21754 | 7.70584 | 37319 ft | 439 kts | 90° |
| 2026-04-21 14:20 | 52.21473 | 7.80524 | 37318 ft | 438 kts | 91° |
| 2026-04-21 14:20 | 52.21235 | 7.88757 | 37318 ft | 437 kts | 91° |
| 2026-04-21 14:21 | 52.20944 | 7.98643 | 37321 ft | 436 kts | 91° |
| 2026-04-21 14:21 | 52.20645 | 8.08515 | 37319 ft | 436 kts | 91° |
| 2026-04-21 14:22 | 52.20340 | 8.18376 | 37314 ft | 435 kts | 91° |
| 2026-04-21 14:22 | 52.20301 | 8.28211 | 37310 ft | 432 kts | 81° |
| 2026-04-21 14:23 | 52.21805 | 8.37606 | 37326 ft | 428 kts | 69° |
| 2026-04-21 14:23 | 52.23787 | 8.46767 | 37319 ft | 429 kts | 70° |
| 2026-04-21 14:24 | 52.25759 | 8.55953 | 37311 ft | 429 kts | 70° |
| 2026-04-21 14:24 | 52.27695 | 8.65150 | 37319 ft | 429 kts | 70° |
| 2026-04-21 14:25 | 52.29618 | 8.74395 | 37320 ft | 430 kts | 70° |
| 2026-04-21 14:25 | 52.31532 | 8.83661 | 37318 ft | 430 kts | 70° |
| 2026-04-21 14:26 | 52.33452 | 8.92995 | 37319 ft | 431 kts | 70° |
| 2026-04-21 14:26 | 52.35353 | 9.02281 | 37329 ft | 431 kts | 71° |
| 2026-04-21 14:27 | 52.37251 | 9.11597 | 37318 ft | 431 kts | 71° |
| 2026-04-21 14:27 | 52.39139 | 9.20905 | 37316 ft | 431 kts | 71° |
| 2026-04-21 14:28 | 52.41009 | 9.30168 | 37321 ft | 430 kts | 71° |
| 2026-04-21 14:28 | 52.42878 | 9.39467 | 37318 ft | 429 kts | 71° |
| 2026-04-21 14:29 | 52.44734 | 9.48748 | 37319 ft | 427 kts | 71° |
| 2026-04-21 14:29 | 52.46566 | 9.57951 | 37291 ft | 426 kts | 71° |
| 2026-04-21 14:30 | 52.48379 | 9.67103 | 37290 ft | 424 kts | 71° |
| 2026-04-21 14:30 | 52.50193 | 9.76307 | 37293 ft | 423 kts | 71° |
| 2026-04-21 14:31 | 52.51995 | 9.85490 | 37294 ft | 422 kts | 71° |
| 2026-04-21 14:31 | 52.53781 | 9.94636 | 37293 ft | 422 kts | 71° |
| 2026-04-21 14:32 | 52.55566 | 10.03818 | 37305 ft | 422 kts | 71° |
| 2026-04-21 14:32 | 52.57344 | 10.13011 | 37296 ft | 422 kts | 72° |
| 2026-04-21 14:33 | 52.59113 | 10.22199 | 37295 ft | 422 kts | 72° |
| 2026-04-21 14:33 | 52.60878 | 10.31413 | 37302 ft | 422 kts | 72° |
| 2026-04-21 14:34 | 52.62631 | 10.40611 | 37304 ft | 422 kts | 72° |
| 2026-04-21 14:34 | 52.64381 | 10.49836 | 37300 ft | 423 kts | 72° |
| 2026-04-21 14:35 | 52.66129 | 10.59095 | 37315 ft | 423 kts | 72° |
| 2026-04-21 14:35 | 52.67868 | 10.68351 | 37302 ft | 423 kts | 72° |
| 2026-04-21 14:36 | 52.69600 | 10.77617 | 37300 ft | 423 kts | 72° |
| 2026-04-21 14:36 | 52.71335 | 10.86950 | 37295 ft | 422 kts | 72° |
| 2026-04-21 14:37 | 52.73049 | 10.96212 | 37297 ft | 422 kts | 72° |
| 2026-04-21 14:37 | 52.74754 | 11.05468 | 37302 ft | 421 kts | 72° |
| 2026-04-21 14:38 | 52.76447 | 11.14709 | 37311 ft | 421 kts | 72° |
| 2026-04-21 14:38 | 52.78131 | 11.23948 | 37302 ft | 420 kts | 73° |
| 2026-04-21 14:39 | 52.79806 | 11.33182 | 37299 ft | 419 kts | 73° |
| 2026-04-21 14:39 | 52.81469 | 11.42399 | 37298 ft | 418 kts | 73° |
| 2026-04-21 14:40 | 52.83122 | 11.51604 | 37299 ft | 417 kts | 73° |
| 2026-04-21 14:40 | 52.84756 | 11.60753 | 37298 ft | 416 kts | 73° |
| 2026-04-21 14:41 | 52.86388 | 11.69933 | 37318 ft | 416 kts | 73° |
| 2026-04-21 14:41 | 52.88014 | 11.79126 | 37302 ft | 416 kts | 73° |
| 2026-04-21 14:42 | 52.89631 | 11.88319 | 37299 ft | 416 kts | 73° |
| 2026-04-21 14:42 | 52.91242 | 11.97525 | 37299 ft | 416 kts | 73° |
| 2026-04-21 14:43 | 52.92845 | 12.06728 | 37299 ft | 416 kts | 73° |
| 2026-04-21 14:43 | 52.94441 | 12.15941 | 36955 ft | 414 kts | 73° |
| 2026-04-21 14:43 | 52.95229 | 12.20501 | 36603 ft | 408 kts | 73° |
| 2026-04-21 14:44 | 52.96001 | 12.24985 | 36281 ft | 403 kts | 73° |
| 2026-04-21 14:44 | 52.96764 | 12.29434 | 35902 ft | 399 kts | 75° |
| 2026-04-21 14:44 | 52.97311 | 12.33915 | 35516 ft | 396 kts | 83° |
| 2026-04-21 14:44 | 52.97446 | 12.38470 | 35158 ft | 392 kts | 91° |
| 2026-04-21 14:45 | 52.97296 | 12.42952 | 34803 ft | 389 kts | 92° |
| 2026-04-21 14:45 | 52.97130 | 12.47403 | 34429 ft | 385 kts | 92° |
| 2026-04-21 14:45 | 52.96971 | 12.51823 | 34011 ft | 382 kts | 91° |
| 2026-04-21 14:45 | 52.96821 | 12.56183 | 33599 ft | 378 kts | 91° |
| 2026-04-21 14:46 | 52.96679 | 12.60519 | 33232 ft | 373 kts | 91° |
| 2026-04-21 14:46 | 52.96542 | 12.64745 | 32864 ft | 369 kts | 91° |
| 2026-04-21 14:46 | 52.96402 | 12.68972 | 32486 ft | 365 kts | 91° |
| 2026-04-21 14:46 | 52.96263 | 12.73140 | 32116 ft | 361 kts | 91° |
| 2026-04-21 14:47 | 52.96118 | 12.77335 | 31764 ft | 357 kts | 91° |
| 2026-04-21 14:47 | 52.95973 | 12.81436 | 31397 ft | 354 kts | 91° |
| 2026-04-21 14:47 | 52.95831 | 12.85497 | 30986 ft | 352 kts | 91° |
| 2026-04-21 14:47 | 52.95690 | 12.89529 | 30557 ft | 351 kts | 91° |
| 2026-04-21 14:48 | 52.95551 | 12.93512 | 30097 ft | 350 kts | 91° |
| 2026-04-21 14:48 | 52.95410 | 12.97527 | 29633 ft | 347 kts | 91° |
| 2026-04-21 14:48 | 52.95270 | 13.01501 | 29207 ft | 343 kts | 91° |
| 2026-04-21 14:48 | 52.95129 | 13.05439 | 28784 ft | 340 kts | 91° |
| 2026-04-21 14:49 | 52.94987 | 13.09335 | 28364 ft | 337 kts | 91° |
| 2026-04-21 14:49 | 52.94846 | 13.13186 | 27949 ft | 334 kts | 91° |
| 2026-04-21 14:49 | 52.94703 | 13.17025 | 27546 ft | 332 kts | 91° |
| 2026-04-21 14:49 | 52.94560 | 13.20836 | 27125 ft | 330 kts | 91° |
| 2026-04-21 14:50 | 52.94553 | 13.23395 | 26840 ft | 327 kts | 84° |
| 2026-04-21 14:50 | 52.95061 | 13.28280 | 26352 ft | 323 kts | 75° |
| 2026-04-21 14:50 | 52.95769 | 13.31788 | 25941 ft | 322 kts | 67° |
| 2026-04-21 14:50 | 52.96741 | 13.35181 | 25548 ft | 320 kts | 65° |
| 2026-04-21 14:51 | 52.97715 | 13.38439 | 25157 ft | 319 kts | 65° |
| 2026-04-21 14:51 | 52.98702 | 13.41737 | 24753 ft | 317 kts | 65° |
| 2026-04-21 14:51 | 52.99665 | 13.44973 | 24383 ft | 316 kts | 65° |
| 2026-04-21 14:51 | 53.00642 | 13.48282 | 23998 ft | 315 kts | 65° |
| 2026-04-21 14:52 | 53.01601 | 13.51550 | 23571 ft | 314 kts | 65° |
| 2026-04-21 14:52 | 53.02552 | 13.54801 | 23135 ft | 312 kts | 65° |
| 2026-04-21 14:52 | 53.03495 | 13.58031 | 22760 ft | 309 kts | 65° |
| 2026-04-21 14:52 | 53.04430 | 13.61238 | 22374 ft | 307 kts | 65° |
| 2026-04-21 14:53 | 53.05366 | 13.64421 | 21992 ft | 305 kts | 65° |
| 2026-04-21 14:53 | 53.06297 | 13.67578 | 21629 ft | 303 kts | 65° |
| 2026-04-21 14:53 | 53.07222 | 13.70716 | 21248 ft | 302 kts | 65° |
| 2026-04-21 14:53 | 53.08143 | 13.73846 | 20881 ft | 300 kts | 65° |
| 2026-04-21 14:54 | 53.09054 | 13.76949 | 20506 ft | 299 kts | 65° |
| 2026-04-21 14:54 | 53.09964 | 13.80053 | 20142 ft | 297 kts | 65° |
| 2026-04-21 14:54 | 53.10556 | 13.82075 | 19904 ft | 297 kts | 65° |
| 2026-04-21 14:54 | 53.11457 | 13.85156 | 19549 ft | 296 kts | 65° |
| 2026-04-21 14:55 | 53.12355 | 13.88229 | 19188 ft | 295 kts | 65° |
| 2026-04-21 14:55 | 53.13250 | 13.91297 | 18842 ft | 294 kts | 65° |
| 2026-04-21 14:55 | 53.14141 | 13.94356 | 18463 ft | 294 kts | 65° |
| 2026-04-21 14:55 | 53.15032 | 13.97419 | 18060 ft | 293 kts | 65° |
| 2026-04-21 14:56 | 53.15919 | 14.00473 | 17681 ft | 292 kts | 65° |
| 2026-04-21 14:56 | 53.16800 | 14.03510 | 17298 ft | 290 kts | 65° |
| 2026-04-21 14:56 | 53.17676 | 14.06534 | 16959 ft | 288 kts | 65° |
| 2026-04-21 14:56 | 53.18547 | 14.09543 | 16599 ft | 287 kts | 65° |
| 2026-04-21 14:57 | 53.19413 | 14.12538 | 16244 ft | 286 kts | 65° |
| 2026-04-21 14:57 | 53.20277 | 14.15533 | 15898 ft | 285 kts | 65° |
| 2026-04-21 14:57 | 53.21133 | 14.18501 | 15553 ft | 284 kts | 65° |
| 2026-04-21 14:57 | 53.21990 | 14.21478 | 15206 ft | 283 kts | 65° |
| 2026-04-21 14:58 | 53.22842 | 14.24442 | 14857 ft | 283 kts | 65° |
| 2026-04-21 14:58 | 53.23691 | 14.27398 | 14513 ft | 282 kts | 65° |
| 2026-04-21 14:58 | 53.24540 | 14.30356 | 14162 ft | 282 kts | 65° |
| 2026-04-21 14:58 | 53.25386 | 14.33304 | 13781 ft | 281 kts | 65° |
| 2026-04-21 14:59 | 53.26227 | 14.36243 | 13424 ft | 280 kts | 65° |
| 2026-04-21 14:59 | 53.27064 | 14.39175 | 13064 ft | 279 kts | 65° |
| 2026-04-21 14:59 | 53.27845 | 14.42134 | 12713 ft | 278 kts | 71° |
| 2026-04-21 14:59 | 53.28388 | 14.45222 | 12379 ft | 276 kts | 75° |
| 2026-04-21 15:00 | 53.28858 | 14.48320 | 12042 ft | 275 kts | 75° |
| 2026-04-21 15:00 | 53.29320 | 14.51420 | 11610 ft | 277 kts | 75° |
| 2026-04-21 15:00 | 53.29795 | 14.54559 | 11135 ft | 277 kts | 75° |
| 2026-04-21 15:00 | 53.30271 | 14.57661 | 10756 ft | 273 kts | 75° |
| 2026-04-21 15:01 | 53.30745 | 14.60714 | 10412 ft | 269 kts | 74° |
| 2026-04-21 15:01 | 53.31215 | 14.63725 | 10076 ft | 267 kts | 74° |
| 2026-04-21 15:01 | 53.31681 | 14.66694 | 9929 ft | 259 kts | 74° |
| 2026-04-21 15:01 | 53.32146 | 14.69655 | 9450 ft | 262 kts | 74° |
| 2026-04-21 15:02 | 53.32604 | 14.72566 | 9088 ft | 259 kts | 74° |
| 2026-04-21 15:02 | 53.33058 | 14.75455 | 8749 ft | 255 kts | 74° |
| 2026-04-21 15:02 | 53.33506 | 14.78311 | 8429 ft | 252 kts | 74° |
| 2026-04-21 15:02 | 53.33950 | 14.81144 | 8107 ft | 252 kts | 74° |
| 2026-04-21 15:03 | 53.34396 | 14.83983 | 7810 ft | 252 kts | 75° |
| 2026-04-21 15:03 | 53.34841 | 14.86828 | 7502 ft | 252 kts | 75° |
| 2026-04-21 15:03 | 53.35283 | 14.89664 | 7198 ft | 253 kts | 75° |
| 2026-04-21 15:03 | 53.35727 | 14.92516 | 6882 ft | 253 kts | 75° |
| 2026-04-21 15:04 | 53.36171 | 14.95374 | 6561 ft | 254 kts | 75° |
| 2026-04-21 15:04 | 53.36610 | 14.98201 | 6400 ft | 243 kts | 75° |
| 2026-04-21 15:04 | 53.37017 | 15.00833 | 6289 ft | 224 kts | 74° |
| 2026-04-21 15:04 | 53.37406 | 15.03348 | 5768 ft | 220 kts | 75° |
| 2026-04-21 15:05 | 53.37779 | 15.05761 | 5434 ft | 209 kts | 74° |
| 2026-04-21 15:05 | 53.39159 | 15.09653 | 4906 ft | 190 kts | 41° |
| 2026-04-21 15:05 | 53.40143 | 15.11082 | 4664 ft | 184 kts | 41° |
| 2026-04-21 15:06 | 53.41096 | 15.12473 | 4437 ft | 179 kts | 41° |
| 2026-04-21 15:06 | 53.42027 | 15.13828 | 4224 ft | 177 kts | 41° |
| 2026-04-21 15:06 | 53.43030 | 15.14963 | 3990 ft | 174 kts | 18° |
| 2026-04-21 15:06 | 53.44211 | 15.15190 | 3793 ft | 170 kts | 358° |
| 2026-04-21 15:07 | 53.45350 | 15.14716 | 3583 ft | 169 kts | 339° |
| 2026-04-21 15:07 | 53.46297 | 15.13539 | 3369 ft | 170 kts | 321° |
| 2026-04-21 15:07 | 53.47137 | 15.12169 | 3145 ft | 168 kts | 320° |
| 2026-04-21 15:07 | 53.47929 | 15.10739 | 2948 ft | 167 kts | 317° |
| 2026-04-21 15:08 | 53.48698 | 15.09271 | 2749 ft | 167 kts | 316° |
| 2026-04-21 15:08 | 53.49447 | 15.07813 | 2650 ft | 164 kts | 316° |
| 2026-04-21 15:08 | 53.50197 | 15.06352 | 2488 ft | 166 kts | 316° |
| 2026-04-21 15:08 | 53.50936 | 15.04911 | 2284 ft | 160 kts | 316° |
| 2026-04-21 15:09 | 53.51646 | 15.03521 | 2073 ft | 157 kts | 315° |
| 2026-04-21 15:09 | 53.52341 | 15.02161 | 1848 ft | 150 kts | 316° |
| 2026-04-21 15:09 | 53.53008 | 15.00860 | 1632 ft | 144 kts | 317° |
| 2026-04-21 15:09 | 53.53650 | 14.99565 | 1398 ft | 144 kts | 316° |
| 2026-04-21 15:10 | 53.54309 | 14.98289 | 1238 ft | 146 kts | 317° |
| 2026-04-21 15:10 | 53.54986 | 14.96990 | 1026 ft | 145 kts | 318° |
| 2026-04-21 15:10 | 53.55631 | 14.95745 | 800 ft | 139 kts | 316° |
| 2026-04-21 15:10 | 53.56241 | 14.94555 | 631 ft | 134 kts | 316° |
| 2026-04-21 15:11 | 53.56860 | 14.93342 | 454 ft | 137 kts | 316° |
| 2026-04-21 15:11 | 53.57488 | 14.92129 | 271 ft | 138 kts | 315° |
| 2026-04-21 15:11 | 53.58104 | 14.90933 | 153 ft | 128 kts | 315° |
| 2026-04-21 15:11 | 53.58572 | 14.90034 | 141 ft | 73 kts | 311° |
| 2026-04-21 15:12 | 53.58843 | 14.89506 | 140 ft | 49 kts | 311° |
| 2026-04-21 15:12 | 53.59000 | 14.89197 | 142 ft | 20 kts | 310° |
| 2026-04-21 15:12 | 53.59085 | 14.89133 | 141 ft | 12 kts | 18° |
| 2026-04-21 15:12 | 53.59127 | 14.89192 | 141 ft | 7 kts | 43° |
| 2026-04-21 15:13 | 53.59159 | 14.89245 | 141 ft | 6 kts | 43° |
| 2026-04-21 15:13 | 53.59190 | 14.89296 | 141 ft | 6 kts | 46° |
| 2026-04-21 15:13 | 53.59214 | 14.89339 | 141 ft | 5 kts | 46° |
| 2026-04-21 15:13 | 53.59230 | 14.89367 | 141 ft | 0 kts | 46° |
| 2026-04-21 15:15 | 53.59234 | 14.89373 | 141 ft | 2 kts | 46° |
| 2026-04-21 15:15 | 53.59245 | 14.89393 | 141 ft | 2 kts | 46° |
| 2026-04-21 15:16 | 53.59246 | 14.89395 | 141 ft | 0 kts | 46° |